createdAt,value
2017-01-07T00:00:44.902Z,1031.39
2017-01-07T00:01:56.295Z,1031.38
2017-01-07T00:03:07.694Z,1031.37
2017-01-07T00:04:19.093Z,1031.41
2017-01-07T00:05:30.478Z,1031.41
2017-01-07T00:06:41.926Z,1031.42
2017-01-07T00:07:53.318Z,1031.43
2017-01-07T00:09:04.711Z,1031.38
2017-01-07T00:10:16.101Z,1031.31
2017-01-07T00:11:27.506Z,1031.35
2017-01-07T00:12:38.948Z,1031.34
2017-01-07T00:13:50.348Z,1031.41
2017-01-07T00:15:01.749Z,1031.39
2017-01-07T00:16:13.168Z,1031.34
2017-01-07T00:17:24.766Z,1031.32
2017-01-07T00:18:36.209Z,1031.32
2017-01-07T00:19:47.611Z,1031.34
2017-01-07T00:20:59.003Z,1031.28
2017-01-07T00:22:10.598Z,1031.33
2017-01-07T00:23:21.988Z,1031.35
2017-01-07T00:24:33.430Z,1031.36
2017-01-07T00:25:44.824Z,1031.32
2017-01-07T00:26:56.216Z,1031.29
2017-01-07T00:28:07.816Z,1031.3
2017-01-07T00:29:19.208Z,1031.3
2017-01-07T00:30:30.644Z,1031.29
2017-01-07T00:31:42.037Z,1031.28
2017-01-07T00:32:53.629Z,1031.26
2017-01-07T00:34:05.026Z,1031.21
2017-01-07T00:35:16.427Z,1031.21
2017-01-07T00:36:27.882Z,1031.18
2017-01-07T00:37:39.478Z,1031.18
2017-01-07T00:38:50.877Z,1031.2
2017-01-07T00:40:02.682Z,1031.28
2017-01-07T00:41:14.076Z,1031.25
2017-01-07T00:42:25.519Z,1031.24
2017-01-07T00:43:36.916Z,1031.23
2017-01-07T00:44:48.507Z,1031.32
2017-01-07T00:45:59.911Z,1031.32
2017-01-07T00:47:11.305Z,1031.27
2017-01-07T00:48:22.754Z,1031.25
2017-01-07T00:49:34.148Z,1031.17
2017-01-07T00:50:45.539Z,1031.01
2017-01-07T00:51:56.935Z,1030.9
2017-01-07T00:53:08.336Z,1030.89
2017-01-07T00:54:19.788Z,1030.89
2017-01-07T00:55:31.182Z,1031.02
2017-01-07T00:56:42.586Z,1031.07
2017-01-07T00:57:53.982Z,1030.99
2017-01-07T00:59:05.387Z,1030.97
2017-01-07T01:00:16.783Z,1031.01
2017-01-07T01:01:28.179Z,1031.07
2017-01-07T01:02:39.782Z,1031.04
2017-01-07T01:03:51.180Z,1030.98
2017-01-07T01:05:02.621Z,1030.95
2017-01-07T01:06:14.219Z,1030.97
2017-01-07T01:07:25.609Z,1030.98
2017-01-07T01:08:37.014Z,1030.98
2017-01-07T01:09:48.615Z,1030.94
2017-01-07T01:11:00.067Z,1030.98
2017-01-07T01:12:11.668Z,1030.97
2017-01-07T01:13:23.073Z,1030.99
2017-01-07T01:14:34.472Z,1031.04
2017-01-07T01:15:45.867Z,1030.99
2017-01-07T01:16:57.310Z,1031
2017-01-07T01:18:08.702Z,1030.97
2017-01-07T01:19:20.299Z,1031.03
2017-01-07T01:20:31.694Z,1031.02
2017-01-07T01:21:43.096Z,1031.02
2017-01-07T01:22:54.779Z,1030.98
2017-01-07T01:24:06.202Z,1031
2017-01-07T01:25:17.603Z,1030.97
2017-01-07T01:26:29.188Z,1030.94
2017-01-07T01:27:40.586Z,1030.94
2017-01-07T01:28:52.227Z,1030.95
2017-01-07T01:30:04.025Z,1030.98
2017-01-07T01:31:15.450Z,1030.98
2017-01-07T01:32:26.842Z,1030.93
2017-01-07T01:33:38.244Z,1030.88
2017-01-07T01:34:49.690Z,1030.86
2017-01-07T01:36:01.087Z,1030.82
2017-01-07T01:37:12.687Z,1030.94
2017-01-07T01:38:24.092Z,1030.94
2017-01-07T01:39:35.483Z,1030.93
2017-01-07T01:40:46.879Z,1030.96
2017-01-07T01:41:58.276Z,1030.94
2017-01-07T01:43:09.679Z,1030.93
2017-01-07T01:44:21.688Z,1030.91
2017-01-07T01:45:33.377Z,1030.9
2017-01-07T01:46:44.776Z,1030.84
2017-01-07T01:47:56.177Z,1030.85
2017-01-07T01:49:07.778Z,1030.82
2017-01-07T01:50:19.174Z,1030.83
2017-01-07T01:51:30.609Z,1030.76
2017-01-07T01:52:42.005Z,1030.78
2017-01-07T01:53:53.404Z,1030.74
2017-01-07T01:55:04.804Z,1030.63
2017-01-07T01:56:16.201Z,1030.57
2017-01-07T01:57:27.648Z,1030.56
2017-01-07T01:58:39.238Z,1030.58
2017-01-07T01:59:50.627Z,1030.57
2017-01-07T02:01:02.046Z,1030.62
2017-01-07T02:02:13.653Z,1030.51
2017-01-07T02:03:25.102Z,1030.51
2017-01-07T02:04:36.498Z,1030.46
2017-01-07T02:05:47.928Z,1030.49
2017-01-07T02:06:59.344Z,1030.5
2017-01-07T02:08:10.744Z,1030.48
2017-01-07T02:09:22.196Z,1030.5
2017-01-07T02:10:33.596Z,1030.48
2017-01-07T02:11:44.987Z,1030.51
2017-01-07T02:12:56.382Z,1030.51
2017-01-07T02:14:07.770Z,1030.53
2017-01-07T02:15:19.432Z,1030.51
2017-01-07T02:16:30.827Z,1030.51
2017-01-07T02:17:42.233Z,1030.55
2017-01-07T02:18:53.630Z,1030.5
2017-01-07T02:20:05.026Z,1030.53
2017-01-07T02:21:16.472Z,1030.44
2017-01-07T02:22:28.065Z,1030.44
2017-01-07T02:23:39.460Z,1030.39
2017-01-07T02:24:50.856Z,1030.4
2017-01-07T02:26:02.252Z,1030.4
2017-01-07T02:27:13.704Z,1030.42
2017-01-07T02:28:25.098Z,1030.4
2017-01-07T02:29:36.499Z,1030.4
2017-01-07T02:30:47.890Z,1030.35
2017-01-07T02:31:59.292Z,1030.38
2017-01-07T02:33:10.742Z,1030.29
2017-01-07T02:34:22.147Z,1030.25
2017-01-07T02:35:33.548Z,1030.22
2017-01-07T02:36:44.943Z,1030.24
2017-01-07T02:37:56.341Z,1030.23
2017-01-07T02:39:07.989Z,1030.21
2017-01-07T02:40:19.588Z,1030.25
2017-01-07T02:41:30.988Z,1030.22
2017-01-07T02:42:42.584Z,1030.23
2017-01-07T02:43:53.981Z,1030.22
2017-01-07T02:45:05.637Z,1030.21
2017-01-07T02:46:17.231Z,1030.18
2017-01-07T02:47:28.617Z,1030.12
2017-01-07T02:48:40.008Z,1030.08
2017-01-07T02:49:51.398Z,1030.05
2017-01-07T02:51:03.041Z,1030.05
2017-01-07T02:52:14.445Z,1030.05
2017-01-07T02:53:25.841Z,1030.09
2017-01-07T02:54:37.242Z,1030.07
2017-01-07T02:55:48.641Z,1030.02
2017-01-07T02:57:00.294Z,1030.06
2017-01-07T02:58:11.682Z,1030.06
2017-01-07T02:59:23.074Z,1030.07
2017-01-07T03:00:34.672Z,1030.04
2017-01-07T03:01:46.068Z,1030.04
2017-01-07T03:02:57.544Z,1030.02
2017-01-07T03:04:08.939Z,1030.03
2017-01-07T03:05:20.330Z,1030.01
2017-01-07T03:06:31.724Z,1029.98
2017-01-07T03:07:43.322Z,1029.92
2017-01-07T03:08:54.769Z,1029.91
2017-01-07T03:10:06.161Z,1029.91
2017-01-07T03:11:17.570Z,1029.91
2017-01-07T03:12:28.971Z,1029.87
2017-01-07T03:13:40.373Z,1029.85
2017-01-07T03:14:51.814Z,1029.85
2017-01-07T03:16:03.212Z,1029.86
2017-01-07T03:17:14.615Z,1029.91
2017-01-07T03:18:26.023Z,1029.89
2017-01-07T03:19:37.424Z,1029.9
2017-01-07T03:20:48.827Z,1029.91
2017-01-07T03:22:00.228Z,1029.92
2017-01-07T03:23:11.624Z,1029.91
2017-01-07T03:24:23.015Z,1029.88
2017-01-07T03:25:34.453Z,1029.79
2017-01-07T03:26:45.859Z,1029.82
2017-01-07T03:27:57.462Z,1029.71
2017-01-07T03:29:09.054Z,1029.79
2017-01-07T03:30:20.449Z,1029.84
2017-01-07T03:31:31.901Z,1029.79
2017-01-07T03:32:43.295Z,1029.84
2017-01-07T03:33:54.696Z,1029.87
2017-01-07T03:35:06.092Z,1029.83
2017-01-07T03:36:17.898Z,1029.76
2017-01-07T03:37:29.352Z,1029.79
2017-01-07T03:38:40.760Z,1029.75
2017-01-07T03:39:52.377Z,1029.73
2017-01-07T03:41:03.771Z,1029.79
2017-01-07T03:42:15.155Z,1029.74
2017-01-07T03:43:26.596Z,1029.7
2017-01-07T03:44:37.996Z,1029.66
2017-01-07T03:45:49.396Z,1029.66
2017-01-07T03:47:00.793Z,1029.67
2017-01-07T03:48:12.222Z,1029.65
2017-01-07T03:49:23.669Z,1029.65
2017-01-07T03:50:35.061Z,1029.63
2017-01-07T03:51:46.463Z,1029.54
2017-01-07T03:52:57.856Z,1029.59
2017-01-07T03:54:09.251Z,1029.63
2017-01-07T03:55:20.901Z,1029.68
2017-01-07T03:56:32.494Z,1029.59
2017-01-07T03:57:44.094Z,1029.55
2017-01-07T03:58:55.496Z,1029.54
2017-01-07T04:00:07.098Z,1029.49
2017-01-07T04:01:18.749Z,1029.47
2017-01-07T04:02:30.152Z,1029.45
2017-01-07T04:03:41.550Z,1029.41
2017-01-07T04:04:52.946Z,1029.38
2017-01-07T04:06:04.570Z,1029.43
2017-01-07T04:07:16.043Z,1029.47
2017-01-07T04:08:27.440Z,1029.38
2017-01-07T04:09:38.841Z,1029.42
2017-01-07T04:10:50.235Z,1029.38
2017-01-07T04:12:01.641Z,1029.36
2017-01-07T04:13:13.288Z,1029.3
2017-01-07T04:14:24.682Z,1029.28
2017-01-07T04:15:36.277Z,1029.29
2017-01-07T04:16:47.680Z,1029.29
2017-01-07T04:17:59.282Z,1029.3
2017-01-07T04:19:10.934Z,1029.31
2017-01-07T04:20:22.334Z,1029.31
2017-01-07T04:21:33.727Z,1029.31
2017-01-07T04:22:45.120Z,1029.33
2017-01-07T04:23:56.514Z,1029.27
2017-01-07T04:25:07.964Z,1029.33
2017-01-07T04:26:19.358Z,1029.27
2017-01-07T04:27:30.954Z,1029.24
2017-01-07T04:28:42.351Z,1029.2
2017-01-07T04:29:53.749Z,1029.17
2017-01-07T04:31:05.199Z,1029.14
2017-01-07T04:32:16.597Z,1029.14
2017-01-07T04:33:27.992Z,1029.12
2017-01-07T04:34:39.391Z,1029.11
2017-01-07T04:35:50.778Z,1029.08
2017-01-07T04:37:02.231Z,1029.1
2017-01-07T04:38:13.632Z,1029.1
2017-01-07T04:39:25.035Z,1029.12
2017-01-07T04:40:36.455Z,1029.06
2017-01-07T04:41:47.852Z,1029.08
2017-01-07T04:42:59.300Z,1029.07
2017-01-07T04:44:10.702Z,1029.06
2017-01-07T04:45:22.100Z,1029.05
2017-01-07T04:46:33.697Z,1029.01
2017-01-07T04:47:45.094Z,1028.97
2017-01-07T04:48:56.540Z,1028.92
2017-01-07T04:50:08.135Z,1028.9
2017-01-07T04:51:19.533Z,1028.85
2017-01-07T04:52:30.936Z,1028.86
2017-01-07T04:53:42.340Z,1028.88
2017-01-07T04:54:53.989Z,1028.91
2017-01-07T04:56:05.398Z,1028.9
2017-01-07T04:57:16.992Z,1028.87
2017-01-07T04:58:28.386Z,1028.88
2017-01-07T04:59:39.782Z,1028.89
2017-01-07T05:00:51.435Z,1028.84
2017-01-07T05:02:02.836Z,1028.85
2017-01-07T05:03:14.435Z,1028.87
2017-01-07T05:04:25.825Z,1028.85
2017-01-07T05:05:37.276Z,1028.8
2017-01-07T05:06:48.678Z,1028.73
2017-01-07T05:08:00.083Z,1028.74
2017-01-07T05:09:11.482Z,1028.75
2017-01-07T05:10:22.884Z,1028.73
2017-01-07T05:11:34.318Z,1028.72
2017-01-07T05:12:45.932Z,1028.69
2017-01-07T05:13:57.532Z,1028.69
2017-01-07T05:15:09.143Z,1028.7
2017-01-07T05:16:20.538Z,1028.74
2017-01-07T05:17:32.193Z,1028.72
2017-01-07T05:18:43.589Z,1028.71
2017-01-07T05:19:54.987Z,1028.7
2017-01-07T05:21:06.386Z,1028.68
2017-01-07T05:22:17.986Z,1028.63
2017-01-07T05:23:29.649Z,1028.65
2017-01-07T05:24:41.075Z,1028.64
2017-01-07T05:25:52.468Z,1028.66
2017-01-07T05:27:03.855Z,1028.65
2017-01-07T05:28:15.263Z,1028.62
2017-01-07T05:29:26.712Z,1028.62
2017-01-07T05:30:38.307Z,1028.62
2017-01-07T05:31:49.711Z,1028.56
2017-01-07T05:33:01.304Z,1028.57
2017-01-07T05:34:12.702Z,1028.58
2017-01-07T05:35:24.144Z,1028.59
2017-01-07T05:36:35.539Z,1028.66
2017-01-07T05:37:46.941Z,1028.63
2017-01-07T05:38:58.348Z,1028.66
2017-01-07T05:40:09.742Z,1028.67
2017-01-07T05:41:21.189Z,1028.65
2017-01-07T05:42:32.590Z,1028.66
2017-01-07T05:43:44.185Z,1028.6
2017-01-07T05:44:55.577Z,1028.6
2017-01-07T05:46:06.976Z,1028.62
2017-01-07T05:47:18.421Z,1028.65
2017-01-07T05:48:29.833Z,1028.61
2017-01-07T05:49:41.229Z,1028.62
2017-01-07T05:50:52.838Z,1028.62
2017-01-07T05:52:04.444Z,1028.62
2017-01-07T05:53:15.896Z,1028.56
2017-01-07T05:54:27.499Z,1028.53
2017-01-07T05:55:39.103Z,1028.59
2017-01-07T05:56:50.510Z,1028.55
2017-01-07T05:58:01.909Z,1028.59
2017-01-07T05:59:13.356Z,1028.55
2017-01-07T06:00:24.762Z,1028.55
2017-01-07T06:01:36.169Z,1028.53
2017-01-07T06:02:47.564Z,1028.51
2017-01-07T06:03:58.960Z,1028.52
2017-01-07T06:05:10.411Z,1028.5
2017-01-07T06:06:21.810Z,1028.49
2017-01-07T06:07:33.209Z,1028.53
2017-01-07T06:08:44.605Z,1028.47
2017-01-07T06:09:55.999Z,1028.46
2017-01-07T06:11:07.652Z,1028.53
2017-01-07T06:12:19.044Z,1028.46
2017-01-07T06:13:30.446Z,1028.46
2017-01-07T06:14:41.842Z,1028.47
2017-01-07T06:15:53.250Z,1028.42
2017-01-07T06:17:04.895Z,1028.43
2017-01-07T06:18:16.318Z,1028.44
2017-01-07T06:19:27.924Z,1028.42
2017-01-07T06:20:39.330Z,1028.43
2017-01-07T06:21:50.932Z,1028.45
2017-01-07T06:23:02.380Z,1028.42
2017-01-07T06:24:13.773Z,1028.44
2017-01-07T06:25:25.374Z,1028.37
2017-01-07T06:26:36.783Z,1028.36
2017-01-07T06:27:48.373Z,1028.32
2017-01-07T06:29:00.022Z,1028.35
2017-01-07T06:30:11.415Z,1028.31
2017-01-07T06:31:22.822Z,1028.31
2017-01-07T06:32:34.217Z,1028.33
2017-01-07T06:33:45.621Z,1028.34
2017-01-07T06:34:57.085Z,1028.29
2017-01-07T06:36:08.484Z,1028.27
2017-01-07T06:37:19.883Z,1028.26
2017-01-07T06:38:31.481Z,1028.32
2017-01-07T06:39:42.879Z,1028.3
2017-01-07T06:40:54.326Z,1028.32
2017-01-07T06:42:05.716Z,1028.35
2017-01-07T06:43:17.112Z,1028.37
2017-01-07T06:44:28.521Z,1028.37
2017-01-07T06:45:39.914Z,1028.35
2017-01-07T06:46:51.361Z,1028.35
2017-01-07T06:48:02.767Z,1028.33
2017-01-07T06:49:14.161Z,1028.37
2017-01-07T06:50:25.563Z,1028.32
2017-01-07T06:51:36.957Z,1028.28
2017-01-07T06:52:48.409Z,1028.22
2017-01-07T06:53:59.804Z,1028.23
2017-01-07T06:55:11.208Z,1028.22
2017-01-07T06:56:22.605Z,1028.2
2017-01-07T06:57:34.013Z,1028.15
2017-01-07T06:58:45.854Z,1028.14
2017-01-07T06:59:57.255Z,1028.13
2017-01-07T07:01:08.650Z,1028.13
2017-01-07T07:02:20.042Z,1028.17
2017-01-07T07:03:31.445Z,1028.13
2017-01-07T07:04:42.894Z,1028.2
2017-01-07T07:05:54.317Z,1028.18
2017-01-07T07:07:05.714Z,1028.15
2017-01-07T07:08:17.528Z,1028.12
2017-01-07T07:09:28.924Z,1028.1
2017-01-07T07:10:40.525Z,1028.06
2017-01-07T07:11:52.320Z,1028.03
2017-01-07T07:13:03.715Z,1028.09
2017-01-07T07:14:15.119Z,1028.04
2017-01-07T07:15:26.566Z,1028.05
2017-01-07T07:16:37.957Z,1028.03
2017-01-07T07:17:49.353Z,1028.06
2017-01-07T07:19:00.754Z,1028.09
2017-01-07T07:20:12.144Z,1028.13
2017-01-07T07:21:23.612Z,1028.11
2017-01-07T07:22:35.008Z,1028.1
2017-01-07T07:23:46.411Z,1028.06
2017-01-07T07:24:57.837Z,1028.09
2017-01-07T07:26:09.434Z,1028.11
2017-01-07T07:27:20.910Z,1028.1
2017-01-07T07:28:32.505Z,1028.12
2017-01-07T07:29:43.902Z,1028.13
2017-01-07T07:30:55.305Z,1028.12
2017-01-07T07:32:06.705Z,1028.05
2017-01-07T07:33:18.147Z,1028.03
2017-01-07T07:34:29.545Z,1028.01
2017-01-07T07:35:41.139Z,1028.01
2017-01-07T07:36:52.742Z,1027.96
2017-01-07T07:38:04.146Z,1028
2017-01-07T07:39:15.596Z,1027.98
2017-01-07T07:40:27.200Z,1028
2017-01-07T07:41:38.593Z,1027.99
2017-01-07T07:42:50.191Z,1027.99
2017-01-07T07:44:01.588Z,1027.99
2017-01-07T07:45:13.034Z,1027.98
2017-01-07T07:46:24.427Z,1027.98
2017-01-07T07:47:35.825Z,1028.03
2017-01-07T07:48:47.223Z,1028.05
2017-01-07T07:49:58.618Z,1028.03
2017-01-07T07:51:10.066Z,1028
2017-01-07T07:52:21.466Z,1028.02
2017-01-07T07:53:32.866Z,1028
2017-01-07T07:54:44.268Z,1028
2017-01-07T07:55:55.660Z,1027.99
2017-01-07T07:57:07.105Z,1027.99
2017-01-07T07:58:18.504Z,1028.01
2017-01-07T07:59:29.907Z,1028
2017-01-07T08:00:41.318Z,1028
2017-01-07T08:01:52.720Z,1027.94
2017-01-07T08:03:04.167Z,1027.97
2017-01-07T08:04:15.563Z,1027.94
2017-01-07T08:05:26.973Z,1027.97
2017-01-07T08:06:38.372Z,1028
2017-01-07T08:07:49.766Z,1027.98
2017-01-07T08:09:01.217Z,1027.96
2017-01-07T08:10:12.623Z,1027.95
2017-01-07T08:11:24.016Z,1027.93
2017-01-07T08:12:35.614Z,1027.92
2017-01-07T08:13:47.015Z,1027.87
2017-01-07T08:14:58.668Z,1027.92
2017-01-07T08:16:10.269Z,1027.89
2017-01-07T08:17:21.678Z,1027.9
2017-01-07T08:18:33.272Z,1027.89
2017-01-07T08:19:44.673Z,1027.87
2017-01-07T08:20:56.119Z,1027.83
2017-01-07T08:22:07.524Z,1027.86
2017-01-07T08:23:18.919Z,1027.85
2017-01-07T08:24:30.308Z,1027.86
2017-01-07T08:25:41.712Z,1027.81
2017-01-07T08:26:53.113Z,1027.88
2017-01-07T08:28:04.546Z,1027.77
2017-01-07T08:29:16.149Z,1027.78
2017-01-07T08:30:27.546Z,1027.75
2017-01-07T08:31:38.990Z,1027.7
2017-01-07T08:32:50.386Z,1027.66
2017-01-07T08:34:02.007Z,1027.67
2017-01-07T08:35:13.411Z,1027.69
2017-01-07T08:36:24.804Z,1027.68
2017-01-07T08:37:36.241Z,1027.66
2017-01-07T08:38:47.874Z,1027.6
2017-01-07T08:39:59.334Z,1027.53
2017-01-07T08:41:10.735Z,1027.52
2017-01-07T08:42:22.331Z,1027.52
2017-01-07T08:43:33.778Z,1027.51
2017-01-07T08:44:45.181Z,1027.51
2017-01-07T08:45:56.574Z,1027.48
2017-01-07T08:47:07.977Z,1027.5
2017-01-07T08:48:19.580Z,1027.48
2017-01-07T08:49:31.020Z,1027.48
2017-01-07T08:50:42.419Z,1027.46
2017-01-07T08:51:53.802Z,1027.38
2017-01-07T08:53:05.195Z,1027.4
2017-01-07T08:54:16.596Z,1027.38
2017-01-07T08:55:28.048Z,1027.37
2017-01-07T08:56:39.442Z,1027.35
2017-01-07T08:57:50.829Z,1027.31
2017-01-07T08:59:02.223Z,1027.27
2017-01-07T09:00:13.619Z,1027.23
2017-01-07T09:01:25.072Z,1027.16
2017-01-07T09:02:36.677Z,1027.2
2017-01-07T09:03:48.265Z,1027.17
2017-01-07T09:04:59.657Z,1027.2
2017-01-07T09:06:11.050Z,1027.15
2017-01-07T09:07:22.704Z,1027.12
2017-01-07T09:08:34.098Z,1027.16
2017-01-07T09:09:45.504Z,1027.1
2017-01-07T09:10:56.891Z,1027.1
2017-01-07T09:12:08.495Z,1027.11
2017-01-07T09:13:19.942Z,1027.09
2017-01-07T09:14:31.334Z,1027.09
2017-01-07T09:15:42.739Z,1027.09
2017-01-07T09:16:54.145Z,1027.06
2017-01-07T09:18:05.542Z,1027.03
2017-01-07T09:19:16.976Z,1027.02
2017-01-07T09:20:28.773Z,1027
2017-01-07T09:21:40.171Z,1027.03
2017-01-07T09:22:51.761Z,1027.01
2017-01-07T09:24:03.357Z,1026.96
2017-01-07T09:25:14.803Z,1026.96
2017-01-07T09:26:26.401Z,1026.95
2017-01-07T09:27:37.824Z,1026.96
2017-01-07T09:28:49.416Z,1026.96
2017-01-07T09:30:00.815Z,1026.97
2017-01-07T09:31:12.467Z,1026.93
2017-01-07T09:32:23.862Z,1026.93
2017-01-07T09:33:35.259Z,1026.97
2017-01-07T09:34:46.664Z,1026.94
2017-01-07T09:35:58.062Z,1026.97
2017-01-07T09:37:09.516Z,1026.94
2017-01-07T09:38:20.909Z,1026.96
2017-01-07T09:39:32.510Z,1027.01
2017-01-07T09:40:44.130Z,1027
2017-01-07T09:41:55.724Z,1027.01
2017-01-07T09:43:07.380Z,1027.01
2017-01-07T09:44:18.774Z,1027.04
2017-01-07T09:45:30.198Z,1027.06
2017-01-07T09:46:41.594Z,1027.09
2017-01-07T09:47:52.996Z,1027.09
2017-01-07T09:49:04.444Z,1027.11
2017-01-07T09:50:15.851Z,1027.05
2017-01-07T09:51:27.235Z,1027.03
2017-01-07T09:52:38.667Z,1026.98
2017-01-07T09:53:50.072Z,1026.91
2017-01-07T09:55:01.551Z,1026.91
2017-01-07T09:56:13.156Z,1026.88
2017-01-07T09:57:24.560Z,1026.9
2017-01-07T09:58:35.949Z,1026.79
2017-01-07T09:59:47.351Z,1026.82
2017-01-07T10:00:58.795Z,1026.85
2017-01-07T10:02:10.399Z,1026.75
2017-01-07T10:03:21.994Z,1026.76
2017-01-07T10:04:33.394Z,1026.77
2017-01-07T10:05:45.001Z,1026.75
2017-01-07T10:06:56.457Z,1026.74
2017-01-07T10:08:08.051Z,1026.7
2017-01-07T10:09:19.441Z,1026.65
2017-01-07T10:10:30.841Z,1026.7
2017-01-07T10:11:42.241Z,1026.69
2017-01-07T10:12:53.689Z,1026.67
2017-01-07T10:14:05.111Z,1026.67
2017-01-07T10:15:16.514Z,1026.66
2017-01-07T10:16:28.116Z,1026.68
2017-01-07T10:17:39.513Z,1026.67
2017-01-07T10:18:50.956Z,1026.65
2017-01-07T10:20:02.557Z,1026.72
2017-01-07T10:21:13.965Z,1026.67
2017-01-07T10:22:25.358Z,1026.64
2017-01-07T10:23:36.745Z,1026.63
2017-01-07T10:24:48.408Z,1026.59
2017-01-07T10:25:59.811Z,1026.62
2017-01-07T10:27:11.216Z,1026.62
2017-01-07T10:28:22.627Z,1026.57
2017-01-07T10:29:34.025Z,1026.55
2017-01-07T10:30:45.690Z,1026.45
2017-01-07T10:31:57.087Z,1026.45
2017-01-07T10:33:08.480Z,1026.45
2017-01-07T10:34:19.878Z,1026.36
2017-01-07T10:35:31.272Z,1026.36
2017-01-07T10:36:42.720Z,1026.32
2017-01-07T10:37:54.118Z,1026.27
2017-01-07T10:39:05.706Z,1026.24
2017-01-07T10:40:17.307Z,1026.3
2017-01-07T10:41:28.715Z,1026.27
2017-01-07T10:42:40.358Z,1026.29
2017-01-07T10:43:51.753Z,1026.33
2017-01-07T10:45:03.163Z,1026.34
2017-01-07T10:46:14.572Z,1026.38
2017-01-07T10:47:25.973Z,1026.35
2017-01-07T10:48:37.429Z,1026.41
2017-01-07T10:49:48.824Z,1026.38
2017-01-07T10:51:00.220Z,1026.35
2017-01-07T10:52:11.619Z,1026.41
2017-01-07T10:53:23.020Z,1026.38
2017-01-07T10:54:34.671Z,1026.43
2017-01-07T10:55:46.082Z,1026.39
2017-01-07T10:56:57.481Z,1026.42
2017-01-07T10:58:08.879Z,1026.4
2017-01-07T10:59:20.271Z,1026.39
2017-01-07T11:00:31.919Z,1026.41
2017-01-07T11:01:43.320Z,1026.37
2017-01-07T11:02:54.914Z,1026.4
2017-01-07T11:04:06.312Z,1026.37
2017-01-07T11:05:17.711Z,1026.43
2017-01-07T11:06:29.155Z,1026.36
2017-01-07T11:07:40.599Z,1026.41
2017-01-07T11:08:52.006Z,1026.36
2017-01-07T11:10:03.601Z,1026.4
2017-01-07T11:11:14.997Z,1026.44
2017-01-07T11:12:26.446Z,1026.43
2017-01-07T11:13:37.842Z,1026.42
2017-01-07T11:14:49.236Z,1026.36
2017-01-07T11:16:00.869Z,1026.33
2017-01-07T11:17:12.272Z,1026.29
2017-01-07T11:18:23.751Z,1026.26
2017-01-07T11:19:35.153Z,1026.22
2017-01-07T11:20:46.552Z,1026.18
2017-01-07T11:21:58.152Z,1026.15
2017-01-07T11:23:09.551Z,1026.13
2017-01-07T11:24:20.996Z,1026.1
2017-01-07T11:25:32.414Z,1026.13
2017-01-07T11:26:43.817Z,1026.07
2017-01-07T11:27:55.418Z,1026.1
2017-01-07T11:29:06.821Z,1026.09
2017-01-07T11:30:18.224Z,1026.12
2017-01-07T11:31:29.624Z,1026.12
2017-01-07T11:32:41.429Z,1026.05
2017-01-07T11:33:52.854Z,1026.01
2017-01-07T11:35:04.495Z,1025.95
2017-01-07T11:36:15.902Z,1025.96
2017-01-07T11:37:27.318Z,1025.95
2017-01-07T11:38:38.728Z,1025.9
2017-01-07T11:39:50.129Z,1025.95
2017-01-07T11:41:01.981Z,1025.98
2017-01-07T11:42:13.383Z,1025.91
2017-01-07T11:43:24.782Z,1025.94
2017-01-07T11:44:36.177Z,1025.91
2017-01-07T11:45:47.580Z,1025.85
2017-01-07T11:46:59.021Z,1025.88
2017-01-07T11:48:10.456Z,1025.83
2017-01-07T11:49:21.853Z,1025.78
2017-01-07T11:50:33.255Z,1025.72
2017-01-07T11:51:44.852Z,1025.76
2017-01-07T11:52:56.295Z,1025.75
2017-01-07T11:54:07.697Z,1025.71
2017-01-07T11:55:19.103Z,1025.69
2017-01-07T11:56:30.507Z,1025.72
2017-01-07T11:57:41.905Z,1025.69
2017-01-07T11:58:53.356Z,1025.65
2017-01-07T12:00:04.757Z,1025.65
2017-01-07T12:01:16.178Z,1025.63
2017-01-07T12:02:27.577Z,1025.62
2017-01-07T12:03:38.974Z,1025.56
2017-01-07T12:04:50.825Z,1025.62
2017-01-07T12:06:02.228Z,1025.6
2017-01-07T12:07:13.625Z,1025.57
2017-01-07T12:08:25.024Z,1025.58
2017-01-07T12:09:36.445Z,1025.49
2017-01-07T12:10:47.893Z,1025.47
2017-01-07T12:11:59.289Z,1025.42
2017-01-07T12:13:10.883Z,1025.4
2017-01-07T12:14:22.281Z,1025.37
2017-01-07T12:15:33.674Z,1025.32
2017-01-07T12:16:45.131Z,1025.29
2017-01-07T12:17:56.527Z,1025.32
2017-01-07T12:19:07.924Z,1025.29
2017-01-07T12:20:19.321Z,1025.22
2017-01-07T12:21:30.925Z,1025.27
2017-01-07T12:22:42.576Z,1025.28
2017-01-07T12:23:53.977Z,1025.22
2017-01-07T12:25:05.374Z,1025.22
2017-01-07T12:26:16.766Z,1025.15
2017-01-07T12:27:28.163Z,1025.14
2017-01-07T12:28:39.613Z,1025.1
2017-01-07T12:29:51.010Z,1025.1
2017-01-07T12:31:02.411Z,1025.1
2017-01-07T12:32:13.812Z,1025.12
2017-01-07T12:33:25.217Z,1025.11
2017-01-07T12:34:36.670Z,1025.08
2017-01-07T12:35:48.071Z,1025.06
2017-01-07T12:36:59.466Z,1025.02
2017-01-07T12:38:10.861Z,1024.98
2017-01-07T12:39:22.269Z,1025.02
2017-01-07T12:40:33.714Z,1025.01
2017-01-07T12:41:45.307Z,1025.02
2017-01-07T12:42:56.704Z,1025.02
2017-01-07T12:44:08.107Z,1025.04
2017-01-07T12:45:19.551Z,1025.03
2017-01-07T12:46:30.959Z,1025.08
2017-01-07T12:47:42.358Z,1025.03
2017-01-07T12:48:53.757Z,1025.02
2017-01-07T12:50:05.149Z,1025.03
2017-01-07T12:51:16.791Z,1024.95
2017-01-07T12:52:28.191Z,1024.95
2017-01-07T12:53:39.591Z,1024.9
2017-01-07T12:54:50.999Z,1024.9
2017-01-07T12:56:02.394Z,1024.89
2017-01-07T12:57:13.870Z,1024.96
2017-01-07T12:58:25.279Z,1024.93
2017-01-07T12:59:36.678Z,1024.93
2017-01-07T13:00:48.075Z,1024.88
2017-01-07T13:01:59.466Z,1024.86
2017-01-07T13:03:10.913Z,1024.86
2017-01-07T13:04:22.314Z,1024.85
2017-01-07T13:05:33.717Z,1024.85
2017-01-07T13:06:45.119Z,1024.84
2017-01-07T13:07:56.523Z,1024.82
2017-01-07T13:09:07.972Z,1024.8
2017-01-07T13:10:19.569Z,1024.75
2017-01-07T13:11:30.966Z,1024.74
2017-01-07T13:12:42.370Z,1024.74
2017-01-07T13:13:53.773Z,1024.66
2017-01-07T13:15:05.222Z,1024.67
2017-01-07T13:16:16.828Z,1024.75
2017-01-07T13:17:28.251Z,1024.71
2017-01-07T13:18:39.852Z,1024.74
2017-01-07T13:19:51.259Z,1024.73
2017-01-07T13:21:02.707Z,1024.79
2017-01-07T13:22:14.099Z,1024.8
2017-01-07T13:23:25.698Z,1024.79
2017-01-07T13:24:37.117Z,1024.75
2017-01-07T13:25:48.520Z,1024.76
2017-01-07T13:26:59.968Z,1024.77
2017-01-07T13:28:11.363Z,1024.8
2017-01-07T13:29:22.761Z,1024.79
2017-01-07T13:30:34.152Z,1024.74
2017-01-07T13:31:45.552Z,1024.7
2017-01-07T13:32:56.997Z,1024.71
2017-01-07T13:34:08.592Z,1024.64
2017-01-07T13:35:20.011Z,1024.63
2017-01-07T13:36:31.409Z,1024.65
2017-01-07T13:37:42.810Z,1024.61
2017-01-07T13:38:54.252Z,1024.61
2017-01-07T13:40:05.679Z,1024.58
2017-01-07T13:41:17.080Z,1024.57
2017-01-07T13:42:28.481Z,1024.55
2017-01-07T13:43:39.876Z,1024.58
2017-01-07T13:44:51.318Z,1024.55
2017-01-07T13:46:02.921Z,1024.6
2017-01-07T13:47:14.315Z,1024.62
2017-01-07T13:48:25.701Z,1024.63
2017-01-07T13:49:37.097Z,1024.62
2017-01-07T13:50:48.703Z,1024.61
2017-01-07T13:52:00.104Z,1024.61
2017-01-07T13:53:11.706Z,1024.62
2017-01-07T13:54:23.106Z,1024.57
2017-01-07T13:55:34.547Z,1024.61
2017-01-07T13:56:45.956Z,1024.6
2017-01-07T13:57:57.351Z,1024.58
2017-01-07T13:59:08.746Z,1024.55
2017-01-07T14:00:20.147Z,1024.5
2017-01-07T14:01:31.593Z,1024.51
2017-01-07T14:02:42.988Z,1024.41
2017-01-07T14:03:54.583Z,1024.38
2017-01-07T14:05:05.978Z,1024.39
2017-01-07T14:06:17.376Z,1024.36
2017-01-07T14:07:28.828Z,1024.35
2017-01-07T14:08:40.220Z,1024.32
2017-01-07T14:09:51.842Z,1024.36
2017-01-07T14:11:03.446Z,1024.36
2017-01-07T14:12:14.841Z,1024.41
2017-01-07T14:13:26.300Z,1024.4
2017-01-07T14:14:37.706Z,1024.36
2017-01-07T14:15:49.113Z,1024.31
2017-01-07T14:17:00.917Z,1024.34
2017-01-07T14:18:12.323Z,1024.38
2017-01-07T14:19:23.769Z,1024.3
2017-01-07T14:20:35.370Z,1024.36
2017-01-07T14:21:46.776Z,1024.32
2017-01-07T14:22:58.167Z,1024.38
2017-01-07T14:24:09.570Z,1024.35
2017-01-07T14:25:21.013Z,1024.34
2017-01-07T14:26:32.420Z,1024.32
2017-01-07T14:27:43.818Z,1024.3